createdAt,value
2018-09-12T00:00:31.932Z,11.18
2018-09-12T00:02:59.651Z,11.16
2018-09-12T00:05:27.343Z,11.18
2018-09-12T00:07:55.081Z,11.18
2018-09-12T00:10:22.805Z,11.18
2018-09-12T00:12:50.515Z,11.19
2018-09-12T00:15:18.255Z,11.19
2018-09-12T00:17:45.966Z,11.20
2018-09-12T00:20:13.683Z,11.20
2018-09-12T00:22:41.447Z,11.19
2018-09-12T00:25:09.160Z,11.17
2018-09-12T00:27:36.870Z,11.17
2018-09-12T00:30:04.788Z,11.15
2018-09-12T00:32:32.511Z,11.15
2018-09-12T00:35:00.368Z,11.13
2018-09-12T00:37:28.065Z,11.14
2018-09-12T00:39:55.769Z,11.15
2018-09-12T00:42:23.497Z,11.10
2018-09-12T00:44:51.204Z,11.08
2018-09-12T00:47:18.948Z,11.07
2018-09-12T00:49:46.671Z,11.04
2018-09-12T00:52:14.456Z,11.00
2018-09-12T00:54:42.146Z,10.95
2018-09-12T00:57:09.838Z,10.96
2018-09-12T00:59:37.543Z,10.96
2018-09-12T01:02:05.274Z,10.92
2018-09-12T01:04:32.971Z,10.94
2018-09-12T01:07:00.724Z,10.90
2018-09-12T01:09:28.411Z,10.90
2018-09-12T01:11:56.138Z,10.87
2018-09-12T01:14:28.326Z,10.84
2018-09-12T01:16:56.024Z,10.85
2018-09-12T01:19:23.848Z,10.82
2018-09-12T01:21:51.767Z,10.80
2018-09-12T01:24:19.497Z,10.77
2018-09-12T01:26:47.210Z,10.76
2018-09-12T01:29:14.907Z,10.77
2018-09-12T01:31:42.833Z,10.76
2018-09-12T01:34:10.633Z,10.79
2018-09-12T01:36:38.640Z,10.83
2018-09-12T01:39:07.555Z,10.82
2018-09-12T01:41:35.256Z,10.82
2018-09-12T01:44:02.971Z,10.80
2018-09-12T01:46:30.688Z,10.79
2018-09-12T01:48:58.396Z,10.76
2018-09-12T01:51:26.108Z,10.75
2018-09-12T01:53:54.006Z,10.76
2018-09-12T01:56:21.828Z,10.72
2018-09-12T01:58:49.758Z,10.73
2018-09-12T02:01:17.574Z,10.72
2018-09-12T02:03:45.550Z,10.72
2018-09-12T02:06:13.359Z,10.70
2018-09-12T02:08:41.217Z,10.70
2018-09-12T02:11:09.076Z,10.68
2018-09-12T02:13:36.944Z,10.66
2018-09-12T02:16:04.801Z,10.65
2018-09-12T02:18:32.678Z,10.63
2018-09-12T02:21:00.600Z,10.64
2018-09-12T02:23:28.460Z,10.65
2018-09-12T02:25:56.295Z,10.61
2018-09-12T02:28:24.180Z,10.58
2018-09-12T02:30:52.301Z,10.58
2018-09-12T02:33:20.189Z,10.59
2018-09-12T02:35:53.412Z,10.59
2018-09-12T02:38:21.212Z,10.56
2018-09-12T02:40:49.190Z,10.57
2018-09-12T02:43:17.032Z,10.59
2018-09-12T02:45:44.904Z,10.61
2018-09-12T02:48:12.749Z,10.58
2018-09-12T02:50:40.602Z,10.58
2018-09-12T02:53:08.433Z,10.55
2018-09-12T02:55:36.301Z,10.54
2018-09-12T02:58:04.313Z,10.54
2018-09-12T03:00:32.260Z,10.51
2018-09-12T03:03:00.110Z,10.50
2018-09-12T03:05:27.981Z,10.48
2018-09-12T03:07:55.899Z,10.45
2018-09-12T03:10:23.766Z,10.45
2018-09-12T03:12:51.612Z,10.44
2018-09-12T03:15:19.530Z,10.44
2018-09-12T03:17:47.407Z,10.43
2018-09-12T03:20:15.201Z,10.43
2018-09-12T03:22:43.010Z,10.43
2018-09-12T03:25:10.849Z,10.41
2018-09-12T03:27:38.734Z,10.43
2018-09-12T03:30:07.011Z,10.41
2018-09-12T03:32:34.889Z,10.39
2018-09-12T03:35:02.738Z,10.35
2018-09-12T03:37:30.562Z,10.36
2018-09-12T03:39:58.400Z,10.37
2018-09-12T03:42:26.239Z,10.37
2018-09-12T03:44:54.121Z,10.35
2018-09-12T03:47:21.936Z,10.33
2018-09-12T03:49:49.774Z,10.30
2018-09-12T03:52:17.652Z,10.28
2018-09-12T03:54:45.437Z,10.26
2018-09-12T03:57:13.233Z,10.25
2018-09-12T03:59:41.112Z,10.23
2018-09-12T04:02:08.946Z,10.21
2018-09-12T04:04:36.730Z,10.21
2018-09-12T04:07:04.734Z,10.24
2018-09-12T04:09:32.551Z,10.26
2018-09-12T04:12:00.385Z,10.27
2018-09-12T04:14:28.217Z,10.28
2018-09-12T04:16:56.096Z,10.28
2018-09-12T04:19:23.913Z,10.30
2018-09-12T04:21:51.811Z,10.33
2018-09-12T04:24:19.674Z,10.34
2018-09-12T04:26:47.699Z,10.36
2018-09-12T04:29:15.536Z,10.38
2018-09-12T04:31:43.338Z,10.39
2018-09-12T04:34:11.138Z,10.41
2018-09-12T04:36:38.932Z,10.44
2018-09-12T04:39:08.938Z,10.49
2018-09-12T04:41:37.012Z,10.50
2018-09-12T04:44:04.857Z,10.52
2018-09-12T04:46:33.625Z,10.54
2018-09-12T04:49:01.598Z,10.59
2018-09-12T04:51:29.510Z,10.64
2018-09-12T04:54:04.463Z,10.70
2018-09-12T04:56:32.329Z,10.70
2018-09-12T04:59:00.174Z,10.71
2018-09-12T05:01:28.042Z,10.76
2018-09-12T05:03:55.897Z,10.82
2018-09-12T05:06:23.758Z,10.91
2018-09-12T05:08:51.601Z,10.92
2018-09-12T05:11:20.273Z,10.94
2018-09-12T05:13:48.227Z,10.95
2018-09-12T05:16:16.070Z,10.97
2018-09-12T05:18:43.922Z,11.00
2018-09-12T05:21:11.713Z,11.02
2018-09-12T05:23:39.585Z,11.05
2018-09-12T05:26:07.483Z,11.04
2018-09-12T05:28:35.387Z,11.05
2018-09-12T05:31:03.241Z,11.06
2018-09-12T05:33:31.133Z,11.05
2018-09-12T05:35:58.952Z,11.05
2018-09-12T05:38:26.780Z,11.06
2018-09-12T05:40:54.632Z,11.04
2018-09-12T05:43:22.495Z,11.06
2018-09-12T05:45:50.285Z,11.09
2018-09-12T05:48:18.118Z,11.12
2018-09-12T05:50:46.013Z,11.15
2018-09-12T05:53:13.955Z,11.13
2018-09-12T05:55:41.918Z,11.15
2018-09-12T05:58:09.818Z,11.14
2018-09-12T06:00:37.729Z,11.13
2018-09-12T06:03:05.609Z,11.13
2018-09-12T06:05:33.443Z,11.10
2018-09-12T06:08:01.451Z,11.13
2018-09-12T06:10:29.307Z,11.13
2018-09-12T06:12:57.228Z,11.13
2018-09-12T06:15:25.107Z,11.14
2018-09-12T06:17:52.995Z,11.13
2018-09-12T06:20:20.870Z,11.13
2018-09-12T06:22:48.690Z,11.16
2018-09-12T06:25:16.589Z,11.22
2018-09-12T06:27:44.445Z,11.26
2018-09-12T06:30:12.286Z,11.32
2018-09-12T06:32:40.176Z,11.34
2018-09-12T06:35:08.090Z,11.38
2018-09-12T06:37:35.951Z,11.41
2018-09-12T06:40:03.841Z,11.46
2018-09-12T06:42:31.713Z,11.50
2018-09-12T06:44:59.579Z,11.60
2018-09-12T06:47:27.468Z,11.66
2018-09-12T06:49:55.288Z,11.69
2018-09-12T06:52:23.198Z,11.78
2018-09-12T06:54:51.526Z,11.81
2018-09-12T06:57:19.452Z,11.87
2018-09-12T06:59:47.276Z,11.93
2018-09-12T07:02:15.099Z,11.96
2018-09-12T07:04:42.934Z,11.98
2018-09-12T07:07:10.800Z,12.08
2018-09-12T07:09:38.657Z,12.18
2018-09-12T07:12:06.553Z,12.26
2018-09-12T07:14:34.434Z,12.30
2018-09-12T07:17:02.337Z,12.37
2018-09-12T07:19:30.234Z,12.40
2018-09-12T07:21:58.070Z,12.46
2018-09-12T07:24:25.980Z,12.52
2018-09-12T07:26:53.829Z,12.60
2018-09-12T07:29:21.787Z,12.61
2018-09-12T07:31:49.594Z,12.57
2018-09-12T07:34:17.420Z,12.55
2018-09-12T07:36:45.297Z,12.61
2018-09-12T07:39:13.875Z,12.69
2018-09-12T07:41:41.980Z,12.76
2018-09-12T07:44:09.830Z,12.76
2018-09-12T07:46:37.692Z,12.76
2018-09-12T07:49:06.423Z,12.78
2018-09-12T07:51:34.298Z,12.85
2018-09-12T07:54:02.133Z,12.89
2018-09-12T07:56:30.117Z,12.99
2018-09-12T07:58:57.966Z,13.07
2018-09-12T08:01:25.867Z,13.14
2018-09-12T08:03:53.654Z,13.24
2018-09-12T08:06:21.408Z,13.27
2018-09-12T08:08:49.296Z,13.26
2018-09-12T08:11:17.014Z,13.28
2018-09-12T08:13:44.724Z,13.24
2018-09-12T08:16:12.471Z,13.20
2018-09-12T08:18:40.546Z,13.22
2018-09-12T08:21:09.391Z,13.21
2018-09-12T08:23:37.108Z,13.24
2018-09-12T08:26:04.881Z,13.32
2018-09-12T08:28:32.630Z,13.34
2018-09-12T08:31:00.336Z,13.32
2018-09-12T08:33:28.071Z,13.25
2018-09-12T08:35:56.440Z,13.23
2018-09-12T08:38:24.209Z,13.22
2018-09-12T08:40:52.003Z,13.31
2018-09-12T08:43:19.728Z,13.37
2018-09-12T08:45:47.449Z,13.35
2018-09-12T08:48:15.178Z,13.42
2018-09-12T08:50:42.992Z,13.38
2018-09-12T08:53:10.741Z,13.37
2018-09-12T08:55:38.512Z,13.33
2018-09-12T08:58:06.268Z,13.34
2018-09-12T09:00:34.577Z,13.40
2018-09-12T09:03:03.385Z,13.42
2018-09-12T09:05:31.130Z,13.51
2018-09-12T09:07:58.903Z,13.52
2018-09-12T09:10:26.703Z,13.45
2018-09-12T09:12:55.307Z,13.47
2018-09-12T09:15:23.132Z,13.41
2018-09-12T09:17:50.864Z,13.47
2018-09-12T09:20:18.631Z,13.49
2018-09-12T09:22:46.401Z,13.53
2018-09-12T09:25:14.160Z,13.53
2018-09-12T09:27:42.504Z,13.44
2018-09-12T09:30:10.236Z,13.29
2018-09-12T09:32:38.269Z,13.31
2018-09-12T09:35:06.435Z,13.22
2018-09-12T09:37:34.122Z,13.19
2018-09-12T09:40:01.896Z,13.19
2018-09-12T09:42:30.261Z,13.18
2018-09-12T09:44:58.280Z,13.15
2018-09-12T09:47:26.031Z,13.14
2018-09-12T09:49:55.880Z,13.14
2018-09-12T09:52:24.577Z,13.16
2018-09-12T09:54:52.368Z,13.09
2018-09-12T09:57:20.267Z,13.10
2018-09-12T09:59:48.076Z,13.16
2018-09-12T10:02:19.360Z,13.19
2018-09-12T10:05:51.481Z,13.21
2018-09-12T10:08:25.691Z,13.30
2018-09-12T10:10:53.395Z,13.31
2018-09-12T10:13:21.169Z,13.34
2018-09-12T10:15:48.859Z,13.43
2018-09-12T10:18:16.551Z,13.43
2018-09-12T10:20:44.265Z,13.47
2018-09-12T10:23:11.941Z,13.36
2018-09-12T10:25:39.656Z,13.23
2018-09-12T10:28:07.409Z,13.35
2018-09-12T10:30:35.113Z,13.45
2018-09-12T10:33:02.823Z,13.49
2018-09-12T10:35:30.560Z,13.53
2018-09-12T10:37:58.245Z,13.43
2018-09-12T10:40:25.974Z,13.38
2018-09-12T10:42:53.725Z,13.42
2018-09-12T10:45:21.484Z,13.36
2018-09-12T10:47:49.177Z,13.37
2018-09-12T10:50:16.876Z,13.38
2018-09-12T10:52:44.611Z,13.37
2018-09-12T10:55:12.313Z,13.43
2018-09-12T10:57:40.025Z,13.42
2018-09-12T11:00:08.020Z,13.45
2018-09-12T11:02:35.767Z,13.37
2018-09-12T11:05:03.640Z,13.42
2018-09-12T11:07:31.408Z,13.43
2018-09-12T11:09:59.132Z,13.36
2018-09-12T11:12:26.857Z,13.36
2018-09-12T11:14:54.593Z,13.27
2018-09-12T11:17:22.355Z,13.31
2018-09-12T11:19:50.095Z,13.31
2018-09-12T11:22:17.792Z,13.35
2018-09-12T11:24:45.694Z,13.37
2018-09-12T11:27:13.449Z,13.41
2018-09-12T11:29:41.146Z,13.43
2018-09-12T11:32:08.852Z,13.41
2018-09-12T11:34:36.620Z,13.42
2018-09-12T11:37:04.333Z,13.42
2018-09-12T11:39:32.055Z,13.41
2018-09-12T11:42:03.640Z,13.45
2018-09-12T11:44:36.562Z,13.41
2018-09-12T11:47:04.296Z,13.36
2018-09-12T11:49:34.304Z,13.45
2018-09-12T11:52:02.983Z,13.44
2018-09-12T11:54:34.588Z,13.49
2018-09-12T11:57:02.316Z,13.65
2018-09-12T11:59:30.029Z,13.77
2018-09-12T12:01:57.810Z,13.90
2018-09-12T12:04:25.595Z,13.83
2018-09-12T12:06:53.528Z,13.90
2018-09-12T12:09:21.240Z,13.89
2018-09-12T12:11:48.936Z,13.87
2018-09-12T12:14:16.668Z,13.73
2018-09-12T12:16:44.452Z,13.62
2018-09-12T12:19:12.112Z,13.57
2018-09-12T12:21:39.849Z,13.58
2018-09-12T12:24:07.606Z,13.61
2018-09-12T12:26:35.383Z,13.69
2018-09-12T12:29:03.112Z,13.77
2018-09-12T12:31:30.852Z,13.77
2018-09-12T12:33:58.600Z,13.68
2018-09-12T12:36:26.364Z,13.60
2018-09-12T12:38:54.052Z,13.65
2018-09-12T12:41:21.836Z,13.66
2018-09-12T12:43:49.537Z,13.59
2018-09-12T12:46:17.258Z,13.67
2018-09-12T12:48:44.986Z,13.70
2018-09-12T12:51:12.716Z,13.82
2018-09-12T12:53:40.480Z,13.78
2018-09-12T12:56:08.176Z,13.83
2018-09-12T12:58:35.892Z,13.75
2018-09-12T13:01:03.612Z,13.71
2018-09-12T13:03:31.309Z,13.78
2018-09-12T13:05:59.006Z,13.72
2018-09-12T13:08:26.700Z,13.66
2018-09-12T13:10:54.444Z,13.65
2018-09-12T13:13:22.149Z,13.69
2018-09-12T13:15:49.878Z,13.77
2018-09-12T13:18:17.632Z,13.73
2018-09-12T13:20:45.391Z,13.74
2018-09-12T13:23:13.140Z,13.63
2018-09-12T13:25:40.913Z,13.64
2018-09-12T13:28:08.624Z,13.62
2018-09-12T13:30:36.352Z,13.59
2018-09-12T13:33:04.113Z,13.60
2018-09-12T13:35:31.844Z,13.62
2018-09-12T13:37:59.572Z,13.63
2018-09-12T13:40:27.258Z,13.65
2018-09-12T13:42:54.990Z,13.61
2018-09-12T13:45:22.684Z,13.57
2018-09-12T13:47:50.356Z,13.61
2018-09-12T13:50:18.112Z,13.60
2018-09-12T13:52:46.677Z,13.59
2018-09-12T13:55:14.629Z,13.53
2018-09-12T13:57:42.523Z,13.43
2018-09-12T14:00:10.305Z,13.34
2018-09-12T14:02:37.993Z,13.36
2018-09-12T14:05:05.828Z,13.37
2018-09-12T14:07:34.347Z,13.29
2018-09-12T14:10:02.096Z,13.24
2018-09-12T14:12:29.836Z,13.15
2018-09-12T14:14:57.559Z,13.14
2018-09-12T14:17:25.347Z,13.05
2018-09-12T14:19:53.051Z,12.98
2018-09-12T14:22:20.756Z,12.89
2018-09-12T14:24:48.468Z,12.84
2018-09-12T14:27:16.149Z,12.78
2018-09-12T14:29:43.907Z,12.73
2018-09-12T14:32:11.688Z,12.72
2018-09-12T14:34:39.436Z,12.68
2018-09-12T14:37:07.303Z,12.65
2018-09-12T14:39:35.127Z,12.62
2018-09-12T14:42:02.870Z,12.62
2018-09-12T14:44:30.584Z,12.60
2018-09-12T14:46:58.324Z,12.59
2018-09-12T14:49:26.052Z,12.59
2018-09-12T14:51:53.768Z,12.58
2018-09-12T14:54:21.471Z,12.51
2018-09-12T14:56:49.179Z,12.50
2018-09-12T14:59:17.086Z,12.47
2018-09-12T15:01:44.814Z,12.48
2018-09-12T15:04:12.525Z,12.41
2018-09-12T15:06:40.448Z,12.39
2018-09-12T15:09:09.578Z,12.39
2018-09-12T15:11:37.370Z,12.36
2018-09-12T15:14:05.267Z,12.33
2018-09-12T15:16:32.996Z,12.33
2018-09-12T15:19:00.973Z,12.31
2018-09-12T15:21:28.703Z,12.22
2018-09-12T15:23:56.415Z,12.23
2018-09-12T15:26:24.162Z,12.15
2018-09-12T15:28:51.876Z,11.98
2018-09-12T15:31:19.605Z,11.87
2018-09-12T15:33:47.394Z,11.85
2018-09-12T15:36:15.560Z,11.84
2018-09-12T15:38:43.245Z,11.78
2018-09-12T15:41:10.952Z,11.73
2018-09-12T15:43:38.732Z,11.70
2018-09-12T15:46:06.529Z,11.60
2018-09-12T15:48:34.240Z,11.64
2018-09-12T15:51:01.928Z,11.59
2018-09-12T15:53:29.753Z,11.60
2018-09-12T15:55:57.452Z,11.56
2018-09-12T15:58:25.168Z,11.55
2018-09-12T16:00:53.167Z,11.53
2018-09-12T16:03:20.975Z,11.49
2018-09-12T16:05:48.688Z,11.46
2018-09-12T16:08:16.409Z,11.36
2018-09-12T16:10:44.133Z,11.34
2018-09-12T16:13:11.833Z,11.24
2018-09-12T16:15:39.599Z,11.16
2018-09-12T16:18:07.296Z,11.12
2018-09-12T16:20:35.161Z,11.09
2018-09-12T16:23:03.004Z,11.08
2018-09-12T16:25:30.867Z,11.03
2018-09-12T16:27:58.543Z,11.03
2018-09-12T16:30:26.262Z,11.02
2018-09-12T16:32:54.092Z,10.97
2018-09-12T16:35:21.852Z,10.90
2018-09-12T16:37:49.575Z,10.82
2018-09-12T16:40:17.301Z,10.76
2018-09-12T16:42:45.026Z,10.70
2018-09-12T16:45:12.736Z,10.68
2018-09-12T16:47:40.440Z,10.64
2018-09-12T16:50:08.160Z,10.51
2018-09-12T16:52:35.892Z,10.44
2018-09-12T16:55:03.613Z,10.37
2018-09-12T16:57:31.652Z,10.32
2018-09-12T16:59:59.353Z,10.27
2018-09-12T17:02:27.041Z,10.22
2018-09-12T17:04:54.788Z,10.16
2018-09-12T17:07:22.465Z,10.13
2018-09-12T17:09:50.172Z,10.11
2018-09-12T17:12:17.956Z,10.10
2018-09-12T17:14:45.645Z,10.07
2018-09-12T17:17:13.371Z,10.02
2018-09-12T17:19:41.167Z,9.98
2018-09-12T17:22:08.844Z,9.96
2018-09-12T17:24:36.552Z,9.93
2018-09-12T17:27:04.279Z,9.92
2018-09-12T17:29:31.976Z,9.88
2018-09-12T17:31:59.709Z,9.83
2018-09-12T17:34:27.463Z,9.81
2018-09-12T17:36:55.219Z,9.76
2018-09-12T17:39:22.929Z,9.76
2018-09-12T17:41:50.622Z,9.72
2018-09-12T17:44:18.780Z,9.71
2018-09-12T17:46:46.496Z,9.64
2018-09-12T17:49:14.184Z,9.64
2018-09-12T17:51:41.884Z,9.63
2018-09-12T17:54:09.588Z,9.59
2018-09-12T17:56:37.314Z,9.59
2018-09-12T17:59:05.138Z,9.54
2018-09-12T18:01:32.847Z,9.50
2018-09-12T18:04:00.569Z,9.48
2018-09-12T18:06:28.282Z,9.44
2018-09-12T18:08:56.026Z,9.44
2018-09-12T18:11:23.868Z,9.41
2018-09-12T18:13:51.593Z,9.35
2018-09-12T18:16:19.299Z,9.29
2018-09-12T18:18:47.070Z,9.26
2018-09-12T18:21:14.789Z,9.24
2018-09-12T18:23:42.509Z,9.21
2018-09-12T18:26:10.216Z,9.17
2018-09-12T18:28:37.915Z,9.17
2018-09-12T18:31:05.678Z,9.16
2018-09-12T18:33:33.395Z,9.13
2018-09-12T18:36:02.127Z,9.11
2018-09-12T18:38:30.217Z,9.10
2018-09-12T18:40:58.260Z,9.10
2018-09-12T18:43:26.029Z,9.09
2018-09-12T18:45:53.747Z,9.07
2018-09-12T18:48:21.504Z,9.05
2018-09-12T18:50:49.324Z,9.02
2018-09-12T18:53:17.364Z,9.00
2018-09-12T18:55:45.120Z,8.98
2018-09-12T18:58:12.823Z,8.95
2018-09-12T19:00:40.716Z,8.92
2018-09-12T19:03:09.167Z,8.89
2018-09-12T19:05:36.962Z,8.90
2018-09-12T19:08:04.687Z,8.89
2018-09-12T19:10:32.397Z,8.88
2018-09-12T19:13:00.113Z,8.86
2018-09-12T19:15:27.860Z,8.83
2018-09-12T19:17:55.612Z,8.83
2018-09-12T19:20:23.335Z,8.81
2018-09-12T19:22:51.047Z,8.81
2018-09-12T19:25:18.774Z,8.81
2018-09-12T19:27:46.457Z,8.81
2018-09-12T19:30:14.176Z,8.81
2018-09-12T19:32:41.947Z,8.80
2018-09-12T19:35:09.641Z,8.78
2018-09-12T19:37:37.347Z,8.77
2018-09-12T19:40:05.152Z,8.79
2018-09-12T19:42:32.952Z,8.77
2018-09-12T19:45:00.691Z,8.78
2018-09-12T19:47:28.433Z,8.76
2018-09-12T19:49:56.510Z,8.75
2018-09-12T19:52:24.251Z,8.75
2018-09-12T19:54:51.988Z,8.74
2018-09-12T19:57:19.661Z,8.76
2018-09-12T19:59:47.429Z,8.76
2018-09-12T20:02:23.938Z,8.76
2018-09-12T20:04:51.712Z,8.76
2018-09-12T20:07:19.511Z,8.76
2018-09-12T20:09:47.691Z,8.75
2018-09-12T20:12:15.835Z,8.74
2018-09-12T20:14:43.513Z,8.75
2018-09-12T20:17:11.219Z,8.73
2018-09-12T20:19:39.024Z,8.73
2018-09-12T20:22:08.040Z,8.72
2018-09-12T20:24:35.855Z,8.73
2018-09-12T20:27:03.630Z,8.72
2018-09-12T20:29:31.349Z,8.72
2018-09-12T20:31:59.105Z,8.70
2018-09-12T20:34:27.068Z,8.70
2018-09-12T20:36:54.801Z,8.70
2018-09-12T20:39:22.552Z,8.69
2018-09-12T20:41:50.252Z,8.68
2018-09-12T20:44:17.978Z,8.66
2018-09-12T20:46:45.698Z,8.66
2018-09-12T20:49:13.439Z,8.65
2018-09-12T20:51:43.823Z,8.62
2018-09-12T20:54:13.248Z,8.62
2018-09-12T20:56:40.996Z,8.61
2018-09-12T20:59:08.705Z,8.63
2018-09-12T21:01:36.442Z,8.60
2018-09-12T21:04:04.158Z,8.58
2018-09-12T21:06:31.926Z,8.57
2018-09-12T21:08:59.616Z,8.57
2018-09-12T21:11:27.311Z,8.60
2018-09-12T21:13:55.108Z,8.59
2018-09-12T21:16:22.789Z,8.58
2018-09-12T21:18:50.505Z,8.59
2018-09-12T21:21:18.207Z,8.58
2018-09-12T21:23:45.934Z,8.58
2018-09-12T21:26:13.640Z,8.57
2018-09-12T21:28:41.918Z,8.57
2018-09-12T21:31:09.683Z,8.58
2018-09-12T21:33:37.698Z,8.56
2018-09-12T21:36:05.565Z,8.55
2018-09-12T21:38:33.312Z,8.53
2018-09-12T21:41:01.139Z,8.51
2018-09-12T21:43:29.980Z,8.51
2018-09-12T21:45:57.750Z,8.51
2018-09-12T21:48:25.467Z,8.51
2018-09-12T21:50:53.170Z,8.52
2018-09-12T21:53:20.880Z,8.49
2018-09-12T21:55:48.547Z,8.50
2018-09-12T21:58:16.260Z,8.51
2018-09-12T22:00:43.992Z,8.49
2018-09-12T22:03:11.689Z,8.48
2018-09-12T22:05:39.415Z,8.48
2018-09-12T22:08:07.202Z,8.48
2018-09-12T22:10:35.115Z,8.48
2018-09-12T22:13:02.787Z,8.48
2018-09-12T22:15:30.483Z,8.48
2018-09-12T22:17:58.160Z,8.50
2018-09-12T22:20:25.920Z,8.49
2018-09-12T22:22:53.595Z,8.48
2018-09-12T22:25:21.504Z,8.50
2018-09-12T22:27:49.268Z,8.48
2018-09-12T22:30:16.978Z,8.46
2018-09-12T22:32:44.676Z,8.45
2018-09-12T22:35:12.376Z,8.44
2018-09-12T22:37:40.092Z,8.46
2018-09-12T22:40:07.904Z,8.43
2018-09-12T22:42:35.720Z,8.44
2018-09-12T22:45:03.487Z,8.44
2018-09-12T22:47:31.132Z,8.43
2018-09-12T22:49:58.804Z,8.44
2018-09-12T22:52:26.492Z,8.40
2018-09-12T22:54:54.180Z,8.42
2018-09-12T22:57:21.884Z,8.42
2018-09-12T22:59:49.603Z,8.41
2018-09-12T23:02:17.319Z,8.40
2018-09-12T23:04:44.972Z,8.41
2018-09-12T23:07:12.627Z,8.40
2018-09-12T23:09:40.329Z,8.42
2018-09-12T23:12:08.000Z,8.42
2018-09-12T23:14:35.681Z,8.41
2018-09-12T23:17:03.500Z,8.42
2018-09-12T23:19:31.088Z,8.42
2018-09-12T23:21:58.786Z,8.40
2018-09-12T23:24:26.467Z,8.40
2018-09-12T23:26:54.187Z,8.41
2018-09-12T23:29:21.871Z,8.40
2018-09-12T23:31:49.541Z,8.39
2018-09-12T23:34:17.269Z,8.39
2018-09-12T23:36:44.963Z,8.36
2018-09-12T23:39:13.576Z,8.35
2018-09-12T23:41:41.711Z,8.35
2018-09-12T23:44:10.083Z,8.34
2018-09-12T23:46:37.868Z,8.34
2018-09-12T23:49:06.113Z,8.33
2018-09-12T23:51:33.855Z,8.34
2018-09-12T23:54:01.690Z,8.31
2018-09-12T23:56:29.351Z,8.29
2018-09-12T23:58:57.055Z,8.29
